Time;durP1;ratioP1;P1;durP2;ratioP2;P2;SDS_P1;SDS_P2;PMS_P1;PMS_P2;Temp;Humidity;BMP_temperature;BMP_pressure;BME280_temperature;BME280_humidity;BME280_pressure;Samples;Min_cycle;Max_cycle;Signal;HPM_P1;HPM_P2
2021/06/14 00:00:34;;;;;;;;;;;;;;;;;;5016711;28;19915;-81
2021/06/14 00:02:59;;;;;;;;;;;;;;;;;;5017566;28;19913;-81
2021/06/14 00:05:34;;;;;;;;;;;;;;;;;;5103087;28;19909;-81
2021/06/14 00:08:00;;;;;;;;;;;;;;;;;;5123109;27;19916;-81
2021/06/14 00:10:25;;;;;;;;;;;;;;;;;;5054729;28;19957;-81
2021/06/14 00:12:51;;;;;;;;;;;;;;;;;;5036967;28;20003;-81
2021/06/14 00:15:16;;;;;;;;;;;;;;;;;;5020159;28;19908;-81
2021/06/14 00:17:41;;;;;;;;;;;;;;;;;;5035130;28;19913;-81
2021/06/14 00:20:08;;;;;;;;;;;;;;;;;;5036709;28;19917;-81
2021/06/14 00:22:33;;;;;;;;;;;;;;;;;;5054445;28;19937;-81
2021/06/14 00:24:58;;;;;;;;;;;;;;;;;;5000484;28;19912;-81
2021/06/14 00:27:24;;;;;;;;;;;;;;;;;;5016488;28;19965;-81
2021/06/14 00:29:49;;;;;;;;;;;;;;;;;;5103142;28;19965;-81
2021/06/14 00:32:14;;;;;;;;;;;;;;;;;;5119441;27;19909;-81
2021/06/14 00:34:39;;;;;;;;;;;;;;;;;;5119578;27;20295;-81
2021/06/14 00:37:04;;;;;;;;;;;;;;;;;;5122567;27;19952;-81
2021/06/14 00:39:30;;;;;;;;;;;;;;;;;;5018497;28;19948;-81
2021/06/14 00:41:55;;;;;;;;;;;;;;;;;;5019799;28;19908;-81
2021/06/14 00:44:20;;;;;;;;;;;;;;;;;;5029856;28;19913;-81
2021/06/14 00:46:45;;;;;;;;;;;;;;;;;;5016809;28;19923;-81
2021/06/14 00:49:11;;;;;;;;;;;;;;;;;;5019288;28;19913;-81
2021/06/14 00:51:36;;;;;;;;;;;;;;;;;;5033442;28;19917;-81
2021/06/14 00:54:01;;;;;;;;;;;;;;;;;;4999554;28;20379;-80
2021/06/14 00:56:26;;;;;;;;;;;;;;;;;;5118976;27;19916;-81
2021/06/14 00:58:51;;;;;;;;;;;;;;;;;;5104242;28;20387;-81
2021/06/14 01:01:17;;;;;;;;;;;;;;;;;;5020458;28;19913;-81
2021/06/14 01:03:42;;;;;;;;;;;;;;;;;;5024046;28;19991;-81
2021/06/14 01:06:08;;;;;;;;;;;;;;;;;;5004461;28;20271;-81
2021/06/14 01:08:35;;;;;;;;;;;;;;;;;;4999133;28;19908;-81
2021/06/14 01:11:20;;;;;;;;;;;;;;;;;;5100729;28;19974;-81
2021/06/14 01:13:52;;;;;;;;;;;;;;;;;;5033787;28;19956;-81
2021/06/14 01:16:17;;;;;;;;;;;;;;;;;;5035739;28;19909;-81
2021/06/14 01:18:42;;;;;;;;;;;;;;;;;;5055509;28;19919;-81
2021/06/14 01:21:09;;;;;;;;;;;;;;;;;;5056309;28;19978;-81
2021/06/14 01:23:48;;;;;;;;;;;;;;;;;;5038066;28;19947;-81
2021/06/14 01:26:22;;;;;;;;;;;;;;;;;;5037616;28;20302;-81
2021/06/14 01:28:49;;;;;;;;;;;;;;;;;;5010072;28;19938;-81
2021/06/14 01:31:14;;;;;;;;;;;;;;;;;;5014960;28;20001;-81
2021/06/14 01:33:39;;;;;;;;;;;;;;;;;;5031204;28;19957;-81
2021/06/14 01:36:06;;;;;;;;;;;;;;;;;;5031058;28;20004;-81
2021/06/14 01:38:31;;;;;;;;;;;;;;;;;;5030413;28;19913;-81
2021/06/14 01:40:58;;;;;;;;;;;;;;;;;;5031016;28;19970;-81
2021/06/14 01:43:26;;;;;;;;;;;;;;;;;;5041574;28;19960;-81
2021/06/14 01:45:52;;;;;;;;;;;;;;;;;;5016792;28;20276;-81
2021/06/14 01:48:17;;;;;;;;;;;;;;;;;;5017919;28;19916;-81
2021/06/14 01:50:42;;;;;;;;;;;;;;;;;;5121124;27;19916;-81
2021/06/14 01:53:07;;;;;;;;;;;;;;;;;;5104020;28;19913;-81
2021/06/14 01:55:33;;;;;;;;;;;;;;;;;;5121646;27;20488;-81
2021/06/14 01:57:58;;;;;;;;;;;;;;;;;;5124622;27;19913;-81
2021/06/14 02:00:23;;;;;;;;;;;;;;;;;;5036758;28;20419;-81
2021/06/14 02:02:48;;;;;;;;;;;;;;;;;;5055216;28;19944;-81
2021/06/14 02:05:14;;;;;;;;;;;;;;;;;;5021132;28;20266;-81
2021/06/14 02:07:40;;;;;;;;;;;;;;;;;;5036242;28;19916;-81
2021/06/14 02:10:05;;;;;;;;;;;;;;;;;;5036602;28;19913;-81
2021/06/14 02:12:31;;;;;;;;;;;;;;;;;;5020709;28;19908;-81
2021/06/14 02:14:56;;;;;;;;;;;;;;;;;;5051182;28;19965;-81
2021/06/14 02:17:23;;;;;;;;;;;;;;;;;;5123512;27;20003;-81
2021/06/14 02:19:48;;;;;;;;;;;;;;;;;;5054767;28;19920;-81
2021/06/14 02:22:13;;;;;;;;;;;;;;;;;;5020750;28;19909;-81
2021/06/14 02:24:39;;;;;;;;;;;;;;;;;;5036958;28;19916;-81
2021/06/14 02:27:04;;;;;;;;;;;;;;;;;;5019064;28;20275;-81
2021/06/14 02:29:30;;;;;;;;;;;;;;;;;;5036160;28;19908;-81
2021/06/14 02:31:55;;;;;;;;;;;;;;;;;;5019328;28;19957;-81
2021/06/14 02:34:20;;;;;;;;;;;;;;;;;;5020260;28;20349;-81
2021/06/14 02:36:45;;;;;;;;;;;;;;;;;;5020059;28;19908;-81
2021/06/14 02:39:14;;;;;;;;;;;;;;;;;;5002389;28;19962;-81
2021/06/14 02:41:40;;;;;;;;;;;;;;;;;;5017162;28;19936;-81
2021/06/14 02:44:05;;;;;;;;;;;;;;;;;;5120141;27;20371;-81
2021/06/14 02:46:34;;;;;;;;;;;;;;;;;;5119385;27;19925;-81
2021/06/14 02:48:59;;;;;;;;;;;;;;;;;;5120941;27;19951;-81
2021/06/14 02:51:25;;;;;;;;;;;;;;;;;;5111950;22;19909;-81
2021/06/14 02:54:03;;;;;;;;;;;;;;;;;;5016320;28;19924;-81
2021/06/14 02:56:28;;;;;;;;;;;;;;;;;;5006412;28;19913;-81
2021/06/14 02:58:53;;;;;;;;;;;;;;;;;;4984885;28;20464;-81
2021/06/14 03:01:19;;;;;;;;;;;;;;;;;;5010236;28;19913;-81
2021/06/14 03:03:44;;;;;;;;;;;;;;;;;;5024001;28;19920;-81
2021/06/14 03:06:11;;;;;;;;;;;;;;;;;;4999166;28;19932;-81
2021/06/14 03:08:36;;;;;;;;;;;;;;;;;;4998864;28;19954;-81
2021/06/14 03:11:01;;;;;;;;;;;;;;;;;;4996919;28;19914;-81
2021/06/14 03:13:26;;;;;;;;;;;;;;;;;;4981711;28;19921;-81
2021/06/14 03:15:52;;;;;;;;;;;;;;;;;;4980687;28;19913;-81
2021/06/14 03:18:17;;;;;;;;;;;;;;;;;;4980818;28;19910;-81
2021/06/14 03:20:42;;;;;;;;;;;;;;;;;;4983311;28;20470;-81
2021/06/14 03:23:08;;;;;;;;;;;;;;;;;;4986366;28;19961;-81
2021/06/14 03:25:33;;;;;;;;;;;;;;;;;;4987918;28;19921;-81
2021/06/14 03:27:58;;;;;;;;;;;;;;;;;;5021440;28;19913;-81
2021/06/14 03:30:24;;;;;;;;;;;;;;;;;;5005709;28;19920;-81
2021/06/14 03:32:49;;;;;;;;;;;;;;;;;;4991544;28;19921;-81
2021/06/14 03:35:15;;;;;;;;;;;;;;;;;;4985659;28;19909;-81
2021/06/14 03:37:40;;;;;;;;;;;;;;;;;;5003071;28;19976;-81
2021/06/14 03:40:06;;;;;;;;;;;;;;;;;;4992676;28;20287;-81
2021/06/14 03:42:31;;;;;;;;;;;;;;;;;;4996642;28;19917;-81
2021/06/14 03:44:57;;;;;;;;;;;;;;;;;;5004860;28;20386;-81
2021/06/14 03:47:22;;;;;;;;;;;;;;;;;;4989671;28;19917;-81
2021/06/14 03:49:47;;;;;;;;;;;;;;;;;;4985130;28;19909;-81
2021/06/14 03:52:12;;;;;;;;;;;;;;;;;;5009344;28;19966;-81
2021/06/14 03:54:38;;;;;;;;;;;;;;;;;;5021682;28;19909;-81
2021/06/14 03:57:03;;;;;;;;;;;;;;;;;;5016183;28;20371;-81
2021/06/14 03:59:28;;;;;;;;;;;;;;;;;;4994954;28;19920;-81
2021/06/14 04:01:53;;;;;;;;;;;;;;;;;;5008784;28;19913;-81
2021/06/14 04:07:03;;;;;;;;;;;;;;;;;;5004102;28;19920;-81
2021/06/14 04:09:28;;;;;;;;;;;;;;;;;;4986205;28;20051;-81
2021/06/14 04:11:53;;;;;;;;;;;;;;;;;;5000180;28;19913;-81
2021/06/14 04:14:18;;;;;;;;;;;;;;;;;;5000659;28;19931;-81
2021/06/14 04:16:44;;;;;;;;;;;;;;;;;;4988162;28;19914;-81
2021/06/14 04:19:09;;;;;;;;;;;;;;;;;;4980811;28;19932;-81
2021/06/14 04:21:34;;;;;;;;;;;;;;;;;;4986300;28;19952;-81
2021/06/14 04:23:59;;;;;;;;;;;;;;;;;;4996674;28;19966;-81
2021/06/14 04:26:25;;;;;;;;;;;;;;;;;;4983517;28;19980;-81
2021/06/14 04:28:50;;;;;;;;;;;;;;;;;;4984444;28;19913;-80
2021/06/14 04:31:15;;;;;;;;;;;;;;;;;;5000989;28;19960;-81
2021/06/14 04:33:40;;;;;;;;;;;;;;;;;;5002880;28;19958;-81
2021/06/14 04:36:06;;;;;;;;;;;;;;;;;;5003104;28;19916;-81
2021/06/14 04:38:31;;;;;;;;;;;;;;;;;;5020330;28;19909;-81
2021/06/14 04:40:56;;;;;;;;;;;;;;;;;;5007207;28;19978;-81
2021/06/14 04:43:22;;;;;;;;;;;;;;;;;;5003212;28;19914;-81
2021/06/14 04:45:47;;;;;;;;;;;;;;;;;;5063392;28;19914;-80
2021/06/14 04:48:12;;;;;;;;;;;;;;;;;;5051740;28;20340;-79
2021/06/14 04:50:37;;;;;;;;;;;;;;;;;;4979402;28;19917;-79
2021/06/14 04:53:02;;;;;;;;;;;;;;;;;;5015122;28;19944;-79
2021/06/14 04:55:28;;;;;;;;;;;;;;;;;;4998054;28;20360;-79
2021/06/14 04:57:53;;;;;;;;;;;;;;;;;;4996876;28;19913;-80
2021/06/14 05:00:19;;;;;;;;;;;;;;;;;;4996794;28;20372;-79
2021/06/14 05:02:44;;;;;;;;;;;;;;;;;;4990626;28;20026;-80
2021/06/14 05:05:10;;;;;;;;;;;;;;;;;;4997710;28;19999;-79
2021/06/14 05:07:35;;;;;;;;;;;;;;;;;;4999564;28;19913;-79
2021/06/14 05:10:00;;;;;;;;;;;;;;;;;;4997270;28;19916;-80
2021/06/14 05:12:25;;;;;;;;;;;;;;;;;;4987955;28;20374;-80
2021/06/14 05:14:50;;;;;;;;;;;;;;;;;;4983594;28;20368;-79
2021/06/14 05:17:19;;;;;;;;;;;;;;;;;;5009706;28;20020;-79
2021/06/14 05:19:44;;;;;;;;;;;;;;;;;;5019267;28;20343;-81
2021/06/14 05:22:09;;;;;;;;;;;;;;;;;;4994414;28;19955;-81
2021/06/14 05:24:35;;;;;;;;;;;;;;;;;;5013528;28;20314;-81
2021/06/14 05:27:00;;;;;;;;;;;;;;;;;;5001811;28;20398;-81
2021/06/14 05:29:25;;;;;;;;;;;;;;;;;;4995778;28;19920;-81
2021/06/14 05:31:50;;;;;;;;;;;;;;;;;;5001144;28;19913;-81
2021/06/14 05:34:15;;;;;;;;;;;;;;;;;;5013908;28;19920;-80
2021/06/14 05:36:41;;;;;;;;;;;;;;;;;;4986372;28;19913;-80
2021/06/14 05:39:06;;;;;;;;;;;;;;;;;;5000293;28;19912;-80
2021/06/14 05:41:31;;;;;;;;;;;;;;;;;;5034004;28;19931;-80
2021/06/14 05:43:56;;;;;;;;;;;;;;;;;;4980766;28;19913;-82
2021/06/14 05:46:21;;;;;;;;;;;;;;;;;;4981651;28;19925;-82
2021/06/14 05:48:47;;;;;;;;;;;;;;;;;;5005212;28;19918;-82
2021/06/14 05:51:12;;;;;;;;;;;;;;;;;;4995660;28;19917;-82
2021/06/14 05:53:37;;;;;;;;;;;;;;;;;;4994650;28;19913;-82
2021/06/14 05:56:02;;;;;;;;;;;;;;;;;;4995104;28;19948;-82
2021/06/14 05:58:27;;;;;;;;;;;;;;;;;;4985784;28;19913;-81
2021/06/14 06:00:53;;;;;;;;;;;;;;;;;;5000766;28;19921;-82
2021/06/14 06:03:18;;;;;;;;;;;;;;;;;;4997625;28;20360;-82
2021/06/14 06:05:43;;;;;;;;;;;;;;;;;;5000671;28;19947;-82
2021/06/14 06:08:08;;;;;;;;;;;;;;;;;;5012060;28;19959;-82
2021/06/14 06:10:34;;;;;;;;;;;;;;;;;;5001553;28;19913;-81
2021/06/14 06:13:01;;;;;;;;;;;;;;;;;;5016299;28;19913;-81
2021/06/14 06:15:26;;;;;;;;;;;;;;;;;;5001750;28;19909;-81
2021/06/14 06:17:51;;;;;;;;;;;;;;;;;;5001053;28;20276;-82
2021/06/14 06:20:17;;;;;;;;;;;;;;;;;;5013895;28;19973;-82
2021/06/14 06:22:42;;;;;;;;;;;;;;;;;;4983492;28;20327;-82
2021/06/14 06:25:08;;;;;;;;;;;;;;;;;;5000982;28;19909;-82
2021/06/14 06:27:33;;;;;;;;;;;;;;;;;;4980974;28;19917;-81
2021/06/14 06:29:59;;;;;;;;;;;;;;;;;;5015536;28;20318;-82
2021/06/14 06:32:24;;;;;;;;;;;;;;;;;;4997586;28;19973;-82
2021/06/14 06:34:49;;;;;;;;;;;;;;;;;;5034908;28;19961;-81
2021/06/14 06:37:14;;;;;;;;;;;;;;;;;;5000735;28;20371;-81
2021/06/14 06:39:39;;;;;;;;;;;;;;;;;;4983345;28;19962;-81
2021/06/14 06:42:05;;;;;;;;;;;;;;;;;;4994615;28;19913;-81
2021/06/14 06:44:30;;;;;;;;;;;;;;;;;;5001214;28;20008;-81
2021/06/14 06:46:55;;;;;;;;;;;;;;;;;;5000726;28;20362;-81
2021/06/14 06:49:20;;;;;;;;;;;;;;;;;;5000401;28;20378;-81
2021/06/14 06:51:46;;;;;;;;;;;;;;;;;;4993987;28;20303;-82
2021/06/14 06:54:11;;;;;;;;;;;;;;;;;;4994702;28;19952;-81
2021/06/14 06:56:43;;;;;;;;;;;;;;;;;;5016706;28;19962;-81
2021/06/14 06:59:09;;;;;;;;;;;;;;;;;;5004681;28;19917;-82
2021/06/14 07:01:34;;;;;;;;;;;;;;;;;;4998258;28;19917;-82
2021/06/14 07:03:59;;;;;;;;;;;;;;;;;;5001901;28;19920;-81
2021/06/14 07:06:24;;;;;;;;;;;;;;;;;;4980821;28;19914;-81
2021/06/14 07:08:50;;;;;;;;;;;;;;;;;;4980619;28;19991;-81
2021/06/14 07:11:15;;;;;;;;;;;;;;;;;;4980858;28;20000;-81
2021/06/14 07:13:40;;;;;;;;;;;;;;;;;;4981798;28;19984;-81
2021/06/14 07:16:05;;;;;;;;;;;;;;;;;;4977127;28;19971;-81
2021/06/14 07:18:31;;;;;;;;;;;;;;;;;;4994208;28;19954;-81
2021/06/14 07:20:58;;;;;;;;;;;;;;;;;;4998615;28;20295;-81
2021/06/14 07:23:24;;;;;;;;;;;;;;;;;;4992102;28;19917;-81
2021/06/14 07:25:49;;;;;;;;;;;;;;;;;;4999660;28;19958;-81
2021/06/14 07:28:14;;;;;;;;;;;;;;;;;;4988493;28;19910;-81
2021/06/14 07:30:39;;;;;;;;;;;;;;;;;;4990900;28;19961;-81
2021/06/14 07:33:05;;;;;;;;;;;;;;;;;;4998377;28;19909;-81
2021/06/14 07:35:30;;;;;;;;;;;;;;;;;;5016054;28;20292;-81
2021/06/14 07:37:55;;;;;;;;;;;;;;;;;;4999463;28;19963;-81
2021/06/14 07:40:20;;;;;;;;;;;;;;;;;;4987585;28;19913;-81
2021/06/14 07:42:45;;;;;;;;;;;;;;;;;;5006097;28;19934;-81
2021/06/14 07:45:11;;;;;;;;;;;;;;;;;;4999984;28;19909;-81
2021/06/14 07:47:36;;;;;;;;;;;;;;;;;;4990007;28;19920;-81
2021/06/14 07:50:02;;;;;;;;;;;;;;;;;;4989190;28;19913;-81
2021/06/14 07:52:27;;;;;;;;;;;;;;;;;;4997567;28;19913;-81
2021/06/14 07:54:52;;;;;;;;;;;;;;;;;;4998947;28;19923;-82
2021/06/14 07:57:18;;;;;;;;;;;;;;;;;;5015730;28;19909;-81
2021/06/14 07:59:43;;;;;;;;;;;;;;;;;;4999218;28;19919;-81
2021/06/14 08:02:08;;;;;;;;;;;;;;;;;;5007382;28;19914;-81
2021/06/14 08:04:33;;;;;;;;;;;;;;;;;;4991306;28;19917;-82
2021/06/14 08:06:58;;;;;;;;;;;;;;;;;;4999180;28;19920;-81
2021/06/14 08:09:31;;;;;;;;;;;;;;;;;;4998783;28;19923;-81
2021/06/14 08:12:01;;;;;;;;;;;;;;;;;;5009581;28;19914;-81
2021/06/14 08:14:26;;;;;;;;;;;;;;;;;;4979944;28;19917;-81
2021/06/14 08:16:51;;;;;;;;;;;;;;;;;;4996849;28;19982;-81
2021/06/14 08:19:27;;;;;;;;;;;;;;;;;;5013505;28;19913;-81
2021/06/14 08:27:04;;;;;;;;;;;;;;;;;;4999699;28;19971;-81
2021/06/14 08:29:29;;;;;;;;;;;;;;;;;;4999500;28;19917;-81
2021/06/14 08:31:54;;;;;;;;;;;;;;;;;;5009558;28;19935;-82
2021/06/14 08:34:20;;;;;;;;;;;;;;;;;;4983870;28;19963;-82
2021/06/14 08:36:45;;;;;;;;;;;;;;;;;;4998083;28;20379;-82
2021/06/14 08:39:11;;;;;;;;;;;;;;;;;;4998641;28;20287;-82
2021/06/14 08:41:36;;;;;;;;;;;;;;;;;;5015539;28;20000;-82
2021/06/14 08:44:02;;;;;;;;;;;;;;;;;;4998931;28;19948;-82
2021/06/14 08:46:27;;;;;;;;;;;;;;;;;;5014715;28;19920;-81
2021/06/14 08:48:52;;;;;;;;;;;;;;;;;;4996701;28;20011;-82
2021/06/14 08:51:18;;;;;;;;;;;;;;;;;;5063515;28;20006;-82
2021/06/14 08:53:43;;;;;;;;;;;;;;;;;;5092391;28;19921;-82
2021/06/14 08:56:08;;;;;;;;;;;;;;;;;;4979886;28;20360;-82
2021/06/14 08:58:33;;;;;;;;;;;;;;;;;;4981770;28;19939;-82
2021/06/14 09:00:59;;;;;;;;;;;;;;;;;;5041542;28;19914;-82
2021/06/14 09:03:25;;;;;;;;;;;;;;;;;;5080492;28;19908;-82
2021/06/14 09:05:50;;;;;;;;;;;;;;;;;;4993748;28;20296;-81
2021/06/14 09:08:15;;;;;;;;;;;;;;;;;;4995191;28;19960;-81
2021/06/14 09:10:41;;;;;;;;;;;;;;;;;;4978967;28;19910;-81
2021/06/14 09:13:15;;;;;;;;;;;;;;;;;;4988499;28;19912;-82
2021/06/14 09:15:41;;;;;;;;;;;;;;;;;;5090639;28;19989;-82
2021/06/14 09:18:13;;;;;;;;;;;;;;;;;;5083283;28;20351;-82
2021/06/14 09:20:39;;;;;;;;;;;;;;;;;;5097960;28;19908;-82
2021/06/14 09:23:08;;;;;;;;;;;;;;;;;;5080604;28;19912;-82
2021/06/14 09:25:33;;;;;;;;;;;;;;;;;;5097549;28;19971;-82
2021/06/14 09:28:05;;;;;;;;;;;;;;;;;;5096996;28;20351;-82
2021/06/14 09:30:31;;;;;;;;;;;;;;;;;;5059078;28;19917;-82
2021/06/14 09:32:56;;;;;;;;;;;;;;;;;;4978489;28;19916;-82
2021/06/14 09:35:22;;;;;;;;;;;;;;;;;;5011950;28;19914;-82
2021/06/14 09:37:59;;;;;;;;;;;;;;;;;;4980118;28;19909;-82
2021/06/14 09:40:35;;;;;;;;;;;;;;;;;;5015477;28;19916;-82
2021/06/14 09:43:00;;;;;;;;;;;;;;;;;;4982066;28;19909;-81
2021/06/14 09:45:26;;;;;;;;;;;;;;;;;;4982080;28;20287;-82
2021/06/14 09:47:54;;;;;;;;;;;;;;;;;;4997685;28;20359;-82
2021/06/14 09:50:26;;;;;;;;;;;;;;;;;;4981764;28;19910;-82
2021/06/14 09:53:12;;;;;;;;;;;;;;;;;;4981346;28;20007;-82
2021/06/14 09:55:38;;;;;;;;;;;;;;;;;;4997903;28;19954;-82
2021/06/14 09:58:17;;;;;;;;;;;;;;;;;;4981600;28;19941;-82
2021/06/14 10:00:58;;;;;;;;;;;;;;;;;;4982001;28;19955;-82
2021/06/14 10:03:24;;;;;;;;;;;;;;;;;;4981850;28;20288;-82
2021/06/14 10:05:50;;;;;;;;;;;;;;;;;;4981426;28;19955;-82
2021/06/14 10:08:25;;;;;;;;;;;;;;;;;;5036635;28;19918;-82
2021/06/14 13:10:00;;;;;;;;;;;;;;;;;;5075995;28;20402;-78
2021/06/14 13:12:26;;;;;;;;;;;;;;;;;;5074457;28;20002;-78
2021/06/14 13:14:51;;;;;;;;;;;;;;;;;;5074328;28;19908;-78
2021/06/14 13:17:26;;;;;;;;;;;;;;;;;;5074090;28;20272;-78
2021/06/14 13:19:52;;;;;;;;;;;;;;;;;;5057261;28;20268;-78
2021/06/14 13:22:21;;;;;;;;;;;;;;;;;;5057437;28;19912;-78
2021/06/14 13:24:47;;;;;;;;;;;;;;;;;;5074345;28;19909;-79
2021/06/14 13:27:13;;;;;;;;;;;;;;;;;;5074098;28;20380;-78
2021/06/14 13:29:38;;;;;;;;;;;;;;;;;;5057834;28;19931;-78
2021/06/14 13:32:03;;;;;;;;;;;;;;;;;;5074318;28;19912;-78
2021/06/14 13:34:30;;;;;;;;;;;;;;;;;;5074233;28;19962;-78
2021/06/14 13:36:56;;;;;;;;;;;;;;;;;;5057318;28;20460;-78
2021/06/14 13:39:26;;;;;;;;;;;;;;;;;;5074134;28;19936;-78
2021/06/14 13:41:58;;;;;;;;;;;;;;;;;;5057575;28;19971;-78
2021/06/14 13:44:23;;;;;;;;;;;;;;;;;;5074449;28;19962;-78
2021/06/14 13:46:49;;;;;;;;;;;;;;;;;;5074497;28;19912;-79
2021/06/14 13:49:24;;;;;;;;;;;;;;;;;;5073879;28;19912;-79
2021/06/14 13:51:56;;;;;;;;;;;;;;;;;;5059924;28;20005;-79
2021/06/14 13:54:21;;;;;;;;;;;;;;;;;;4976046;28;19941;-78
2021/06/14 13:56:47;;;;;;;;;;;;;;;;;;4975045;28;19917;-78
2021/06/14 13:59:19;;;;;;;;;;;;;;;;;;4974613;28;20012;-78
2021/06/14 14:01:44;;;;;;;;;;;;;;;;;;4991826;28;19914;-78
2021/06/14 14:04:15;;;;;;;;;;;;;;;;;;4991568;28;19909;-78
2021/06/14 14:06:40;;;;;;;;;;;;;;;;;;4975565;28;20075;-78
2021/06/14 14:09:05;;;;;;;;;;;;;;;;;;4975191;28;20457;-79
2021/06/14 14:11:30;;;;;;;;;;;;;;;;;;4975585;28;19917;-78
2021/06/14 14:13:56;;;;;;;;;;;;;;;;;;4975794;28;20004;-79
2021/06/14 14:16:21;;;;;;;;;;;;;;;;;;4993424;28;19910;-78
2021/06/14 14:18:46;;;;;;;;;;;;;;;;;;4993292;28;20368;-78
2021/06/14 14:21:11;;;;;;;;;;;;;;;;;;4991733;28;19956;-78
2021/06/14 14:23:36;;;;;;;;;;;;;;;;;;4993848;28;19909;-78
2021/06/14 14:26:01;;;;;;;;;;;;;;;;;;4994720;28;19952;-78
2021/06/14 14:28:27;;;;;;;;;;;;;;;;;;4977489;28;19960;-78
2021/06/14 14:30:52;;;;;;;;;;;;;;;;;;4993842;28;19910;-78
2021/06/14 14:33:17;;;;;;;;;;;;;;;;;;4993815;28;19910;-78
2021/06/14 14:35:49;;;;;;;;;;;;;;;;;;4993598;28;20296;-78
2021/06/14 14:38:14;;;;;;;;;;;;;;;;;;4977235;28;20190;-78
2021/06/14 14:40:39;;;;;;;;;;;;;;;;;;4977452;28;19975;-78
2021/06/14 14:43:05;;;;;;;;;;;;;;;;;;4994003;28;20419;-78
2021/06/14 14:45:30;;;;;;;;;;;;;;;;;;4977517;28;20319;-78
2021/06/14 14:48:02;;;;;;;;;;;;;;;;;;4977233;28;19914;-78
2021/06/14 14:50:28;;;;;;;;;;;;;;;;;;4977299;28;20276;-78
2021/06/14 14:52:53;;;;;;;;;;;;;;;;;;4977200;28;19960;-78
2021/06/14 14:55:19;;;;;;;;;;;;;;;;;;4993573;28;19972;-78
2021/06/14 14:57:44;;;;;;;;;;;;;;;;;;4976971;28;19963;-78
2021/06/14 15:00:10;;;;;;;;;;;;;;;;;;4977446;28;19916;-78
2021/06/14 15:02:35;;;;;;;;;;;;;;;;;;4977011;28;19910;-78
2021/06/14 15:05:00;;;;;;;;;;;;;;;;;;4977370;28;19917;-78
2021/06/14 15:07:26;;;;;;;;;;;;;;;;;;4976676;28;20276;-78
2021/06/14 15:09:51;;;;;;;;;;;;;;;;;;4993480;28;19941;-78
2021/06/14 15:12:16;;;;;;;;;;;;;;;;;;4976819;28;19909;-78
2021/06/14 15:14:41;;;;;;;;;;;;;;;;;;4993012;28;20289;-80
2021/06/14 15:17:06;;;;;;;;;;;;;;;;;;4993070;28;19910;-78
2021/06/14 15:19:33;;;;;;;;;;;;;;;;;;4976949;28;19909;-79
2021/06/14 15:21:59;;;;;;;;;;;;;;;;;;4977370;28;20250;-78
2021/06/14 15:24:25;;;;;;;;;;;;;;;;;;5019391;23;20023;-78
2021/06/14 15:26:50;;;;;;;;;;;;;;;;;;4999064;28;19952;-79
2021/06/14 15:29:15;;;;;;;;;;;;;;;;;;4999555;28;19909;-78
2021/06/14 15:31:40;;;;;;;;;;;;;;;;;;4998990;28;19999;-79
2021/06/14 15:34:06;;;;;;;;;;;;;;;;;;5033094;28;19909;-79
2021/06/14 15:36:31;;;;;;;;;;;;;;;;;;4998398;28;20015;-79
2021/06/14 15:38:57;;;;;;;;;;;;;;;;;;4999235;28;19943;-79
2021/06/14 15:41:26;;;;;;;;;;;;;;;;;;4999096;28;19969;-79
2021/06/14 15:43:51;;;;;;;;;;;;;;;;;;4999067;28;19915;-79
2021/06/14 15:46:16;;;;;;;;;;;;;;;;;;5015384;28;19958;-79
2021/06/14 15:48:41;;;;;;;;;;;;;;;;;;4998929;28;20267;-79
2021/06/14 15:51:07;;;;;;;;;;;;;;;;;;4998983;28;19928;-79
2021/06/14 15:53:32;;;;;;;;;;;;;;;;;;4998966;28;19909;-79
2021/06/14 15:55:59;;;;;;;;;;;;;;;;;;5015071;28;19909;-79
2021/06/14 15:58:24;;;;;;;;;;;;;;;;;;4998602;28;19908;-78
2021/06/14 16:00:50;;;;;;;;;;;;;;;;;;5001070;28;19962;-80
2021/06/14 16:03:15;;;;;;;;;;;;;;;;;;5017153;28;19909;-81
2021/06/14 16:05:42;;;;;;;;;;;;;;;;;;5017672;28;19909;-80
2021/06/14 16:08:09;;;;;;;;;;;;;;;;;;5000596;28;19956;-80
2021/06/14 16:10:34;;;;;;;;;;;;;;;;;;5001879;28;19916;-82
2021/06/14 16:12:59;;;;;;;;;;;;;;;;;;4997364;28;19912;-81
2021/06/14 16:15:24;;;;;;;;;;;;;;;;;;5012306;28;20306;-84
2021/06/14 16:17:49;;;;;;;;;;;;;;;;;;4998036;28;19932;-83
2021/06/14 16:20:15;;;;;;;;;;;;;;;;;;4998673;28;19962;-80
2021/06/14 16:22:41;;;;;;;;;;;;;;;;;;4996399;28;19913;-82
2021/06/14 16:25:07;;;;;;;;;;;;;;;;;;5012866;28;19917;-80
2021/06/14 16:27:32;;;;;;;;;;;;;;;;;;4996841;28;19920;-80
2021/06/14 16:29:58;;;;;;;;;;;;;;;;;;4996331;28;19920;-82
2021/06/14 16:32:23;;;;;;;;;;;;;;;;;;4998198;28;20352;-80
2021/06/14 16:34:48;;;;;;;;;;;;;;;;;;4997865;28;19913;-79
2021/06/14 16:37:13;;;;;;;;;;;;;;;;;;4994636;28;19913;-78
2021/06/14 16:39:38;;;;;;;;;;;;;;;;;;4993983;28;20295;-78
2021/06/14 16:42:04;;;;;;;;;;;;;;;;;;5011739;28;20448;-79
2021/06/14 16:44:29;;;;;;;;;;;;;;;;;;5013521;28;19920;-82
2021/06/14 16:46:54;;;;;;;;;;;;;;;;;;4995184;28;19984;-83
2021/06/14 16:49:19;;;;;;;;;;;;;;;;;;4996492;28;19955;-79
2021/06/14 16:51:45;;;;;;;;;;;;;;;;;;4995606;28;19953;-81
2021/06/14 16:54:14;;;;;;;;;;;;;;;;;;4995319;28;19913;-82
2021/06/14 16:56:40;;;;;;;;;;;;;;;;;;4996948;28;20570;-82
2021/06/14 16:59:05;;;;;;;;;;;;;;;;;;5013068;28;20011;-81
2021/06/14 17:01:31;;;;;;;;;;;;;;;;;;5013136;28;20020;-81
2021/06/14 17:03:56;;;;;;;;;;;;;;;;;;5016493;28;19909;-81
2021/06/14 17:06:21;;;;;;;;;;;;;;;;;;5016092;28;20279;-81
2021/06/14 17:08:46;;;;;;;;;;;;;;;;;;4999565;28;20004;-81
2021/06/14 17:11:11;;;;;;;;;;;;;;;;;;4999832;28;19916;-81
2021/06/14 17:13:39;;;;;;;;;;;;;;;;;;4999858;28;19909;-81
2021/06/14 17:16:05;;;;;;;;;;;;;;;;;;4999883;28;19952;-81
2021/06/14 17:18:30;;;;;;;;;;;;;;;;;;4999614;28;19909;-81
2021/06/14 17:20:56;;;;;;;;;;;;;;;;;;5016262;28;19916;-81
2021/06/14 17:23:21;;;;;;;;;;;;;;;;;;5015850;28;19912;-81
2021/06/14 17:25:46;;;;;;;;;;;;;;;;;;4999297;28;20268;-80
2021/06/14 17:28:11;;;;;;;;;;;;;;;;;;4999637;28;19972;-81
2021/06/14 17:30:36;;;;;;;;;;;;;;;;;;5011883;28;19952;-80
2021/06/14 17:33:02;;;;;;;;;;;;;;;;;;4995389;28;19913;-80
2021/06/14 17:35:27;;;;;;;;;;;;;;;;;;4996087;28;19909;-81
2021/06/14 17:37:52;;;;;;;;;;;;;;;;;;4997721;28;20352;-81
2021/06/14 17:40:18;;;;;;;;;;;;;;;;;;4997068;28;19909;-81
2021/06/14 17:42:43;;;;;;;;;;;;;;;;;;5012035;28;19913;-82
2021/06/14 17:45:08;;;;;;;;;;;;;;;;;;4994553;28;19913;-84
2021/06/14 17:47:53;;;;;;;;;;;;;;;;;;4994422;28;19913;-84
2021/06/14 17:50:19;;;;;;;;;;;;;;;;;;5010646;28;20004;-83
2021/06/14 17:52:44;;;;;;;;;;;;;;;;;;5010859;28;20024;-82
2021/06/14 17:55:10;;;;;;;;;;;;;;;;;;4994678;28;19913;-82
2021/06/14 17:57:38;;;;;;;;;;;;;;;;;;5011845;28;20008;-82
2021/06/14 18:00:07;;;;;;;;;;;;;;;;;;4999005;28;19913;-82
2021/06/14 18:02:32;;;;;;;;;;;;;;;;;;5015235;28;20340;-83
2021/06/14 18:04:57;;;;;;;;;;;;;;;;;;4997507;28;20020;-80
2021/06/14 18:07:26;;;;;;;;;;;;;;;;;;4996727;28;19923;-81
2021/06/14 18:09:51;;;;;;;;;;;;;;;;;;5014527;28;20409;-81
2021/06/14 18:12:16;;;;;;;;;;;;;;;;;;5013993;28;19982;-81
2021/06/14 18:14:41;;;;;;;;;;;;;;;;;;4997932;28;19917;-81
2021/06/14 18:17:06;;;;;;;;;;;;;;;;;;4997544;28;19909;-81
2021/06/14 18:19:32;;;;;;;;;;;;;;;;;;4996954;28;19909;-81
2021/06/14 18:21:57;;;;;;;;;;;;;;;;;;4997255;28;19948;-81
2021/06/14 18:24:22;;;;;;;;;;;;;;;;;;5014556;28;20449;-81
2021/06/14 18:26:47;;;;;;;;;;;;;;;;;;4998669;28;20313;-80
2021/06/14 18:29:13;;;;;;;;;;;;;;;;;;5014422;28;19953;-81
2021/06/14 18:31:48;;;;;;;;;;;;;;;;;;5014240;28;19917;-80
2021/06/14 18:34:13;;;;;;;;;;;;;;;;;;4998318;28;19921;-80
2021/06/14 18:36:38;;;;;;;;;;;;;;;;;;4998123;28;19934;-79
2021/06/14 18:39:03;;;;;;;;;;;;;;;;;;5012894;28;19913;-78
2021/06/14 18:41:29;;;;;;;;;;;;;;;;;;5011862;28;20442;-78
2021/06/14 18:43:54;;;;;;;;;;;;;;;;;;4996378;28;20435;-81
2021/06/14 18:46:19;;;;;;;;;;;;;;;;;;4997150;28;19913;-80
2021/06/14 18:48:49;;;;;;;;;;;;;;;;;;4996761;28;19909;-79
2021/06/14 18:51:15;;;;;;;;;;;;;;;;;;4997666;28;19913;-80
2021/06/14 18:53:40;;;;;;;;;;;;;;;;;;4995305;28;20440;-80
2021/06/14 18:56:05;;;;;;;;;;;;;;;;;;4996193;28;19915;-79
2021/06/14 18:58:30;;;;;;;;;;;;;;;;;;4995201;28;19919;-77
2021/06/14 19:00:55;;;;;;;;;;;;;;;;;;5012233;28;19963;-80
2021/06/14 19:03:21;;;;;;;;;;;;;;;;;;5011885;28;19917;-78
2021/06/14 19:05:46;;;;;;;;;;;;;;;;;;5015994;28;19957;-83
2021/06/14 19:08:11;;;;;;;;;;;;;;;;;;4996742;28;20403;-84
2021/06/14 19:10:36;;;;;;;;;;;;;;;;;;4995949;28;19909;-83
2021/06/14 19:13:02;;;;;;;;;;;;;;;;;;5033541;28;19913;-83
2021/06/14 19:15:27;;;;;;;;;;;;;;;;;;4997861;28;19913;-85
2021/06/14 19:17:52;;;;;;;;;;;;;;;;;;5011948;28;20365;-79
2021/06/14 19:20:18;;;;;;;;;;;;;;;;;;5011503;28;19909;-79
2021/06/14 19:22:43;;;;;;;;;;;;;;;;;;5029017;28;19920;-78
2021/06/14 19:25:09;;;;;;;;;;;;;;;;;;5011842;28;20378;-78
2021/06/14 19:27:34;;;;;;;;;;;;;;;;;;4995833;28;19921;-78
2021/06/14 19:29:59;;;;;;;;;;;;;;;;;;4994196;28;19913;-78
2021/06/14 19:32:24;;;;;;;;;;;;;;;;;;4995430;28;19920;-81
2021/06/14 19:34:50;;;;;;;;;;;;;;;;;;4995849;28;19909;-79
2021/06/14 19:37:18;;;;;;;;;;;;;;;;;;5011335;28;20390;-78
2021/06/14 19:39:43;;;;;;;;;;;;;;;;;;5011171;28;19913;-77
2021/06/14 19:42:09;;;;;;;;;;;;;;;;;;5010708;28;20398;-78
2021/06/14 19:44:34;;;;;;;;;;;;;;;;;;4995112;28;19920;-78